sensor_id;sensor_type;location;lat;lon;timestamp;temperature;humidity
38458;DHT22;24239;48.058;10.486;2023-03-07T00:01:28;1.80;99.90
38458;DHT22;24239;48.058;10.486;2023-03-07T00:03:57;1.80;99.90
38458;DHT22;24239;48.058;10.486;2023-03-07T00:06:26;1.80;99.90
38458;DHT22;24239;48.058;10.486;2023-03-07T00:08:57;1.80;99.90
38458;DHT22;24239;48.058;10.486;2023-03-07T00:11:30;1.80;99.90
38458;DHT22;24239;48.058;10.486;2023-03-07T00:13:56;1.70;99.90
38458;DHT22;24239;48.058;10.486;2023-03-07T00:16:25;1.80;99.90
38458;DHT22;24239;48.058;10.486;2023-03-07T00:18:54;1.70;99.90
38458;DHT22;24239;48.058;10.486;2023-03-07T00:21:30;1.80;99.90
38458;DHT22;24239;48.058;10.486;2023-03-07T00:24:08;1.70;99.90
38458;DHT22;24239;48.058;10.486;2023-03-07T00:26:46;1.70;99.90
38458;DHT22;24239;48.058;10.486;2023-03-07T00:29:19;1.70;99.90
38458;DHT22;24239;48.058;10.486;2023-03-07T00:31:53;1.70;99.90
38458;DHT22;24239;48.058;10.486;2023-03-07T00:34:22;1.80;99.90
38458;DHT22;24239;48.058;10.486;2023-03-07T00:36:52;1.70;99.90
38458;DHT22;24239;48.058;10.486;2023-03-07T00:39:19;1.80;99.90
38458;DHT22;24239;48.058;10.486;2023-03-07T00:41:48;1.80;99.90
38458;DHT22;24239;48.058;10.486;2023-03-07T00:44:19;1.80;99.90
38458;DHT22;24239;48.058;10.486;2023-03-07T00:46:49;1.80;99.90
38458;DHT22;24239;48.058;10.486;2023-03-07T00:49:22;1.70;99.90
38458;DHT22;24239;48.058;10.486;2023-03-07T00:51:54;1.80;99.90
38458;DHT22;24239;48.058;10.486;2023-03-07T00:54:40;1.80;99.90
38458;DHT22;24239;48.058;10.486;2023-03-07T00:57:08;1.70;99.90
38458;DHT22;24239;48.058;10.486;2023-03-07T00:59:49;1.70;99.90
38458;DHT22;24239;48.058;10.486;2023-03-07T01:02:28;1.70;99.90
38458;DHT22;24239;48.058;10.486;2023-03-07T01:05:04;1.80;99.90
38458;DHT22;24239;48.058;10.486;2023-03-07T01:07:48;1.70;99.90
38458;DHT22;24239;48.058;10.486;2023-03-07T01:10:28;1.70;99.90
38458;DHT22;24239;48.058;10.486;2023-03-07T01:13:08;1.70;99.90
38458;DHT22;24239;48.058;10.486;2023-03-07T01:15:55;1.70;99.90
38458;DHT22;24239;48.058;10.486;2023-03-07T01:18:32;1.70;99.90
38458;DHT22;24239;48.058;10.486;2023-03-07T01:21:28;1.70;99.90
38458;DHT22;24239;48.058;10.486;2023-03-07T01:24:09;1.70;99.90
38458;DHT22;24239;48.058;10.486;2023-03-07T01:26:49;1.70;99.90
38458;DHT22;24239;48.058;10.486;2023-03-07T01:29:45;1.70;99.90
38458;DHT22;24239;48.058;10.486;2023-03-07T01:32:24;1.60;99.90
38458;DHT22;24239;48.058;10.486;2023-03-07T01:35:02;1.50;99.90
38458;DHT22;24239;48.058;10.486;2023-03-07T01:37:41;1.70;99.90
38458;DHT22;24239;48.058;10.486;2023-03-07T01:40:40;1.70;99.90
38458;DHT22;24239;48.058;10.486;2023-03-07T01:43:31;1.70;99.90
38458;DHT22;24239;48.058;10.486;2023-03-07T01:46:33;1.70;99.90
38458;DHT22;24239;48.058;10.486;2023-03-07T01:49:36;1.80;99.90
38458;DHT22;24239;48.058;10.486;2023-03-07T01:55:22;1.70;99.90
38458;DHT22;24239;48.058;10.486;2023-03-07T01:58:19;1.70;99.90
38458;DHT22;24239;48.058;10.486;2023-03-07T02:01:00;1.70;99.90
38458;DHT22;24239;48.058;10.486;2023-03-07T02:03:45;1.60;99.90
38458;DHT22;24239;48.058;10.486;2023-03-07T02:06:47;1.60;99.90
38458;DHT22;24239;48.058;10.486;2023-03-07T02:09:25;1.60;99.90
38458;DHT22;24239;48.058;10.486;2023-03-07T02:12:14;1.50;99.90
38458;DHT22;24239;48.058;10.486;2023-03-07T02:14:51;1.70;99.90
38458;DHT22;24239;48.058;10.486;2023-03-07T02:17:48;1.60;99.90
38458;DHT22;24239;48.058;10.486;2023-03-07T02:20:44;1.80;99.90
38458;DHT22;24239;48.058;10.486;2023-03-07T02:23:17;1.60;99.90
38458;DHT22;24239;48.058;10.486;2023-03-07T02:28:33;1.60;99.90
38458;DHT22;24239;48.058;10.486;2023-03-07T02:31:06;1.60;99.90
38458;DHT22;24239;48.058;10.486;2023-03-07T02:33:34;1.60;99.90
38458;DHT22;24239;48.058;10.486;2023-03-07T02:36:05;1.60;99.90
38458;DHT22;24239;48.058;10.486;2023-03-07T02:38:35;1.70;99.90
38458;DHT22;24239;48.058;10.486;2023-03-07T02:41:05;1.50;99.90
38458;DHT22;24239;48.058;10.486;2023-03-07T02:43:35;1.60;99.90
38458;DHT22;24239;48.058;10.486;2023-03-07T02:46:03;1.40;99.90
38458;DHT22;24239;48.058;10.486;2023-03-07T02:48:30;1.70;99.90
38458;DHT22;24239;48.058;10.486;2023-03-07T02:50:58;1.70;99.90
38458;DHT22;24239;48.058;10.486;2023-03-07T02:53:27;1.60;99.90
38458;DHT22;24239;48.058;10.486;2023-03-07T02:55:54;1.60;99.90
38458;DHT22;24239;48.058;10.486;2023-03-07T02:58:21;1.60;99.90
38458;DHT22;24239;48.058;10.486;2023-03-07T03:00:51;1.70;99.90
38458;DHT22;24239;48.058;10.486;2023-03-07T03:03:22;1.70;99.90
38458;DHT22;24239;48.058;10.486;2023-03-07T03:05:50;1.70;99.90
38458;DHT22;24239;48.058;10.486;2023-03-07T03:08:17;1.50;99.90
38458;DHT22;24239;48.058;10.486;2023-03-07T03:10:45;1.70;99.90
38458;DHT22;24239;48.058;10.486;2023-03-07T03:13:11;1.70;99.90
38458;DHT22;24239;48.058;10.486;2023-03-07T03:15:38;1.80;99.90
38458;DHT22;24239;48.058;10.486;2023-03-07T03:18:08;1.60;99.90
38458;DHT22;24239;48.058;10.486;2023-03-07T03:20:34;1.70;99.90
38458;DHT22;24239;48.058;10.486;2023-03-07T03:23:06;1.70;99.90
38458;DHT22;24239;48.058;10.486;2023-03-07T03:25:34;1.70;99.90
38458;DHT22;24239;48.058;10.486;2023-03-07T03:28:12;1.70;99.90
38458;DHT22;24239;48.058;10.486;2023-03-07T03:30:56;1.70;99.90
38458;DHT22;24239;48.058;10.486;2023-03-07T03:33:35;1.70;99.90
38458;DHT22;24239;48.058;10.486;2023-03-07T03:36:13;1.70;99.90
38458;DHT22;24239;48.058;10.486;2023-03-07T03:38:52;1.60;99.90
38458;DHT22;24239;48.058;10.486;2023-03-07T03:41:30;1.60;99.90
38458;DHT22;24239;48.058;10.486;2023-03-07T03:44:08;1.60;99.90
38458;DHT22;24239;48.058;10.486;2023-03-07T03:46:47;1.70;99.90
38458;DHT22;24239;48.058;10.486;2023-03-07T03:49:26;1.60;99.90
38458;DHT22;24239;48.058;10.486;2023-03-07T03:52:04;1.70;99.90
38458;DHT22;24239;48.058;10.486;2023-03-07T03:54:42;1.70;99.90
38458;DHT22;24239;48.058;10.486;2023-03-07T03:57:20;1.60;99.90
38458;DHT22;24239;48.058;10.486;2023-03-07T04:00:11;1.60;99.90
38458;DHT22;24239;48.058;10.486;2023-03-07T04:02:56;1.50;99.90
38458;DHT22;24239;48.058;10.486;2023-03-07T04:05:42;1.50;99.90
38458;DHT22;24239;48.058;10.486;2023-03-07T04:08:20;1.40;99.90
38458;DHT22;24239;48.058;10.486;2023-03-07T04:11:00;1.40;99.90
38458;DHT22;24239;48.058;10.486;2023-03-07T04:13:37;1.30;99.90
38458;DHT22;24239;48.058;10.486;2023-03-07T04:16:16;1.30;99.90
38458;DHT22;24239;48.058;10.486;2023-03-07T04:18:55;1.20;99.90
38458;DHT22;24239;48.058;10.486;2023-03-07T04:21:34;1.10;99.90
38458;DHT22;24239;48.058;10.486;2023-03-07T04:24:13;1.00;99.90
38458;DHT22;24239;48.058;10.486;2023-03-07T04:26:52;1.00;99.90
38458;DHT22;24239;48.058;10.486;2023-03-07T04:29:31;1.00;99.90
38458;DHT22;24239;48.058;10.486;2023-03-07T04:32:09;0.80;99.90
38458;DHT22;24239;48.058;10.486;2023-03-07T04:34:39;0.80;99.90
38458;DHT22;24239;48.058;10.486;2023-03-07T04:37:08;0.80;99.90
38458;DHT22;24239;48.058;10.486;2023-03-07T04:39:36;0.70;99.90
38458;DHT22;24239;48.058;10.486;2023-03-07T04:42:06;0.70;99.90
38458;DHT22;24239;48.058;10.486;2023-03-07T04:44:36;0.50;99.90
38458;DHT22;24239;48.058;10.486;2023-03-07T04:47:07;0.60;99.90
38458;DHT22;24239;48.058;10.486;2023-03-07T04:49:34;0.50;99.90
38458;DHT22;24239;48.058;10.486;2023-03-07T04:52:03;0.50;99.90
38458;DHT22;24239;48.058;10.486;2023-03-07T04:54:59;0.40;99.90
38458;DHT22;24239;48.058;10.486;2023-03-07T04:57:37;0.40;99.90
38458;DHT22;24239;48.058;10.486;2023-03-07T05:00:06;0.40;99.90
38458;DHT22;24239;48.058;10.486;2023-03-07T05:02:37;0.10;99.90
38458;DHT22;24239;48.058;10.486;2023-03-07T05:05:24;-0.10;99.90
38458;DHT22;24239;48.058;10.486;2023-03-07T05:07:58;-0.10;99.90
38458;DHT22;24239;48.058;10.486;2023-03-07T05:10:30;-0.10;99.90
38458;DHT22;24239;48.058;10.486;2023-03-07T05:12:57;-0.10;99.90
38458;DHT22;24239;48.058;10.486;2023-03-07T05:15:26;-0.20;99.90
38458;DHT22;24239;48.058;10.486;2023-03-07T05:17:53;-0.30;99.90
38458;DHT22;24239;48.058;10.486;2023-03-07T05:20:20;-0.30;99.90
38458;DHT22;24239;48.058;10.486;2023-03-07T05:22:49;-0.30;99.90
38458;DHT22;24239;48.058;10.486;2023-03-07T05:25:15;-0.10;99.90
38458;DHT22;24239;48.058;10.486;2023-03-07T05:27:40;0.20;99.90
38458;DHT22;24239;48.058;10.486;2023-03-07T05:30:08;-0.10;99.90
38458;DHT22;24239;48.058;10.486;2023-03-07T05:32:36;-0.20;99.90
38458;DHT22;24239;48.058;10.486;2023-03-07T05:35:06;-0.30;99.90
38458;DHT22;24239;48.058;10.486;2023-03-07T05:37:33;-0.20;99.90
38458;DHT22;24239;48.058;10.486;2023-03-07T05:40:02;-0.20;99.90
38458;DHT22;24239;48.058;10.486;2023-03-07T05:42:31;-0.20;99.90
38458;DHT22;24239;48.058;10.486;2023-03-07T05:44:57;-0.10;99.90
38458;DHT22;24239;48.058;10.486;2023-03-07T05:47:23;-0.30;99.90
38458;DHT22;24239;48.058;10.486;2023-03-07T05:49:51;-0.10;99.90
38458;DHT22;24239;48.058;10.486;2023-03-07T05:52:24;-0.20;99.90
38458;DHT22;24239;48.058;10.486;2023-03-07T05:54:55;-0.30;99.90
38458;DHT22;24239;48.058;10.486;2023-03-07T05:57:24;-0.20;99.90
38458;DHT22;24239;48.058;10.486;2023-03-07T05:59:51;-0.20;99.90
38458;DHT22;24239;48.058;10.486;2023-03-07T06:02:20;-0.20;99.90
38458;DHT22;24239;48.058;10.486;2023-03-07T06:04:49;-0.10;99.90
38458;DHT22;24239;48.058;10.486;2023-03-07T06:07:36;-0.10;99.90
38458;DHT22;24239;48.058;10.486;2023-03-07T06:10:28;-0.30;99.90
38458;DHT22;24239;48.058;10.486;2023-03-07T06:12:59;0.00;99.90
38458;DHT22;24239;48.058;10.486;2023-03-07T06:15:27;-0.10;99.90
38458;DHT22;24239;48.058;10.486;2023-03-07T06:17:56;-0.10;99.90
38458;DHT22;24239;48.058;10.486;2023-03-07T06:20:27;-0.20;99.90
38458;DHT22;24239;48.058;10.486;2023-03-07T06:22:54;-0.10;99.90
38458;DHT22;24239;48.058;10.486;2023-03-07T06:25:37;0.00;99.90
38458;DHT22;24239;48.058;10.486;2023-03-07T06:28:05;0.10;99.90
38458;DHT22;24239;48.058;10.486;2023-03-07T06:30:41;0.10;99.90
38458;DHT22;24239;48.058;10.486;2023-03-07T06:33:07;0.20;99.90
38458;DHT22;24239;48.058;10.486;2023-03-07T06:35:39;0.40;99.90
38458;DHT22;24239;48.058;10.486;2023-03-07T06:38:08;0.30;99.90
38458;DHT22;24239;48.058;10.486;2023-03-07T06:40:48;0.20;99.90
38458;DHT22;24239;48.058;10.486;2023-03-07T06:43:22;0.30;99.90
38458;DHT22;24239;48.058;10.486;2023-03-07T06:45:50;0.30;99.90
38458;DHT22;24239;48.058;10.486;2023-03-07T06:48:44;0.30;99.90
38458;DHT22;24239;48.058;10.486;2023-03-07T06:51:39;0.50;99.90
38458;DHT22;24239;48.058;10.486;2023-03-07T06:54:27;0.50;99.90
38458;DHT22;24239;48.058;10.486;2023-03-07T06:57:17;0.60;99.90
38458;DHT22;24239;48.058;10.486;2023-03-07T07:00:16;0.60;99.90
38458;DHT22;24239;48.058;10.486;2023-03-07T07:02:49;0.60;99.90
38458;DHT22;24239;48.058;10.486;2023-03-07T07:05:20;0.70;99.90
38458;DHT22;24239;48.058;10.486;2023-03-07T07:07:50;0.70;99.90
38458;DHT22;24239;48.058;10.486;2023-03-07T07:10:24;0.70;99.90
38458;DHT22;24239;48.058;10.486;2023-03-07T07:13:10;0.80;99.90
38458;DHT22;24239;48.058;10.486;2023-03-07T07:15:39;0.70;99.90
38458;DHT22;24239;48.058;10.486;2023-03-07T07:18:10;0.60;99.90
38458;DHT22;24239;48.058;10.486;2023-03-07T07:20:55;0.70;99.90
38458;DHT22;24239;48.058;10.486;2023-03-07T07:23:25;0.80;99.90
38458;DHT22;24239;48.058;10.486;2023-03-07T07:25:54;0.80;99.90
38458;DHT22;24239;48.058;10.486;2023-03-07T07:28:21;0.90;99.90
38458;DHT22;24239;48.058;10.486;2023-03-07T07:30:47;0.90;99.90
38458;DHT22;24239;48.058;10.486;2023-03-07T07:33:15;0.80;99.90
38458;DHT22;24239;48.058;10.486;2023-03-07T07:35:43;0.90;99.90
38458;DHT22;24239;48.058;10.486;2023-03-07T07:38:12;1.00;99.90
38458;DHT22;24239;48.058;10.486;2023-03-07T07:40:45;1.10;99.90
38458;DHT22;24239;48.058;10.486;2023-03-07T07:43:29;1.10;99.90
38458;DHT22;24239;48.058;10.486;2023-03-07T07:45:57;1.20;99.90
38458;DHT22;24239;48.058;10.486;2023-03-07T07:48:24;1.30;99.90
38458;DHT22;24239;48.058;10.486;2023-03-07T07:50:51;1.60;99.90
38458;DHT22;24239;48.058;10.486;2023-03-07T07:53:18;1.50;99.90
38458;DHT22;24239;48.058;10.486;2023-03-07T07:55:47;1.60;99.90
38458;DHT22;24239;48.058;10.486;2023-03-07T07:58:16;1.60;99.90
38458;DHT22;24239;48.058;10.486;2023-03-07T08:00:48;1.70;99.90
38458;DHT22;24239;48.058;10.486;2023-03-07T08:03:20;1.70;99.90
38458;DHT22;24239;48.058;10.486;2023-03-07T08:05:46;1.90;99.90
38458;DHT22;24239;48.058;10.486;2023-03-07T08:08:17;2.00;99.90
38458;DHT22;24239;48.058;10.486;2023-03-07T08:10:46;2.20;99.90
38458;DHT22;24239;48.058;10.486;2023-03-07T08:13:14;2.40;99.90
38458;DHT22;24239;48.058;10.486;2023-03-07T08:15:42;2.80;99.90
38458;DHT22;24239;48.058;10.486;2023-03-07T08:18:11;3.10;99.90
38458;DHT22;24239;48.058;10.486;2023-03-07T08:20:42;3.40;99.90
38458;DHT22;24239;48.058;10.486;2023-03-07T08:23:10;3.70;99.90
38458;DHT22;24239;48.058;10.486;2023-03-07T08:25:40;3.70;99.90
38458;DHT22;24239;48.058;10.486;2023-03-07T08:28:10;3.80;99.90
38458;DHT22;24239;48.058;10.486;2023-03-07T08:30:47;3.90;99.90
38458;DHT22;24239;48.058;10.486;2023-03-07T08:33:16;4.00;99.90
38458;DHT22;24239;48.058;10.486;2023-03-07T08:35:45;4.00;99.90
38458;DHT22;24239;48.058;10.486;2023-03-07T08:38:18;4.20;99.90
38458;DHT22;24239;48.058;10.486;2023-03-07T08:40:45;4.30;99.90
38458;DHT22;24239;48.058;10.486;2023-03-07T08:43:12;4.40;99.90
38458;DHT22;24239;48.058;10.486;2023-03-07T08:45:43;4.30;99.90
38458;DHT22;24239;48.058;10.486;2023-03-07T08:48:12;4.50;99.90
38458;DHT22;24239;48.058;10.486;2023-03-07T08:50:40;4.40;99.90
38458;DHT22;24239;48.058;10.486;2023-03-07T08:53:14;4.40;99.90
38458;DHT22;24239;48.058;10.486;2023-03-07T08:55:41;4.50;99.90
38458;DHT22;24239;48.058;10.486;2023-03-07T08:58:10;4.60;99.90
38458;DHT22;24239;48.058;10.486;2023-03-07T09:00:44;4.60;99.90
38458;DHT22;24239;48.058;10.486;2023-03-07T09:03:12;4.40;99.90
38458;DHT22;24239;48.058;10.486;2023-03-07T09:05:42;4.50;99.90
38458;DHT22;24239;48.058;10.486;2023-03-07T09:08:10;4.20;99.90
38458;DHT22;24239;48.058;10.486;2023-03-07T09:10:45;4.40;99.90
38458;DHT22;24239;48.058;10.486;2023-03-07T09:13:17;4.60;99.90
38458;DHT22;24239;48.058;10.486;2023-03-07T09:15:45;4.90;99.90
38458;DHT22;24239;48.058;10.486;2023-03-07T09:18:34;5.10;99.90
38458;DHT22;24239;48.058;10.486;2023-03-07T09:21:02;5.20;99.70
38458;DHT22;24239;48.058;10.486;2023-03-07T09:23:30;5.20;99.70
38458;DHT22;24239;48.058;10.486;2023-03-07T09:26:02;5.40;99.50
38458;DHT22;24239;48.058;10.486;2023-03-07T09:28:31;5.80;99.90
38458;DHT22;24239;48.058;10.486;2023-03-07T09:31:04;6.00;98.50
38458;DHT22;24239;48.058;10.486;2023-03-07T09:33:33;5.80;98.30
38458;DHT22;24239;48.058;10.486;2023-03-07T09:36:07;5.20;98.10
38458;DHT22;24239;48.058;10.486;2023-03-07T09:38:37;5.00;99.40
38458;DHT22;24239;48.058;10.486;2023-03-07T09:43:43;4.90;99.10
38458;DHT22;24239;48.058;10.486;2023-03-07T09:48:57;5.60;98.80
38458;DHT22;24239;48.058;10.486;2023-03-07T09:51:41;6.00;98.00
38458;DHT22;24239;48.058;10.486;2023-03-07T09:54:14;6.30;97.80
38458;DHT22;24239;48.058;10.486;2023-03-07T09:56:50;6.20;97.00
38458;DHT22;24239;48.058;10.486;2023-03-07T10:01:53;5.60;97.40
38458;DHT22;24239;48.058;10.486;2023-03-07T10:04:22;5.40;97.30
38458;DHT22;24239;48.058;10.486;2023-03-07T10:06:53;5.50;98.40
38458;DHT22;24239;48.058;10.486;2023-03-07T10:09:22;5.40;97.40
38458;DHT22;24239;48.058;10.486;2023-03-07T10:22:18;5.70;98.40
38458;DHT22;24239;48.058;10.486;2023-03-07T10:24:53;5.80;97.30
38458;DHT22;24239;48.058;10.486;2023-03-07T10:27:25;5.80;97.40
38458;DHT22;24239;48.058;10.486;2023-03-07T10:29:55;5.80;97.90
38458;DHT22;24239;48.058;10.486;2023-03-07T10:34:53;5.50;97.50
38458;DHT22;24239;48.058;10.486;2023-03-07T10:37:25;5.30;97.30
38458;DHT22;24239;48.058;10.486;2023-03-07T10:39:56;5.50;97.50
38458;DHT22;24239;48.058;10.486;2023-03-07T10:42:29;5.50;97.60
38458;DHT22;24239;48.058;10.486;2023-03-07T10:45:04;5.40;97.00
38458;DHT22;24239;48.058;10.486;2023-03-07T10:47:32;5.20;97.30
38458;DHT22;24239;48.058;10.486;2023-03-07T10:52:50;5.10;97.50
38458;DHT22;24239;48.058;10.486;2023-03-07T10:55:32;5.00;97.30
38458;DHT22;24239;48.058;10.486;2023-03-07T11:00:39;5.30;97.60
38458;DHT22;24239;48.058;10.486;2023-03-07T11:05:53;5.60;97.90
38458;DHT22;24239;48.058;10.486;2023-03-07T11:10:52;5.70;97.40
38458;DHT22;24239;48.058;10.486;2023-03-07T11:13:20;5.70;97.80
38458;DHT22;24239;48.058;10.486;2023-03-07T11:15:47;5.60;97.10
38458;DHT22;24239;48.058;10.486;2023-03-07T11:20:59;5.20;97.50
38458;DHT22;24239;48.058;10.486;2023-03-07T11:23:29;5.10;96.90
38458;DHT22;24239;48.058;10.486;2023-03-07T11:25:57;5.00;97.50
38458;DHT22;24239;48.058;10.486;2023-03-07T11:28:39;4.90;97.00
38458;DHT22;24239;48.058;10.486;2023-03-07T11:36:39;4.90;97.00
38458;DHT22;24239;48.058;10.486;2023-03-07T11:39:23;5.00;97.10
38458;DHT22;24239;48.058;10.486;2023-03-07T11:41:54;4.90;96.70
38458;DHT22;24239;48.058;10.486;2023-03-07T11:57:42;5.40;97.30
38458;DHT22;24239;48.058;10.486;2023-03-07T12:16:19;5.70;96.60
38458;DHT22;24239;48.058;10.486;2023-03-07T12:19:04;5.60;97.10
38458;DHT22;24239;48.058;10.486;2023-03-07T12:24:24;5.90;95.60
38458;DHT22;24239;48.058;10.486;2023-03-07T12:26:55;5.90;96.20
38458;DHT22;24239;48.058;10.486;2023-03-07T12:32:46;5.80;96.80
38458;DHT22;24239;48.058;10.486;2023-03-07T12:34:56;6.00;96.30
38458;DHT22;24239;48.058;10.486;2023-03-07T12:37:33;5.90;96.50
38458;DHT22;24239;48.058;10.486;2023-03-07T12:40:28;6.00;96.30
38458;DHT22;24239;48.058;10.486;2023-03-07T12:45:49;6.10;96.70
38458;DHT22;24239;48.058;10.486;2023-03-07T12:48:34;6.30;95.90
38458;DHT22;24239;48.058;10.486;2023-03-07T12:53:52;6.30;95.40
38458;DHT22;24239;48.058;10.486;2023-03-07T12:59:20;6.30;95.30
38458;DHT22;24239;48.058;10.486;2023-03-07T13:04:35;6.40;96.20
38458;DHT22;24239;48.058;10.486;2023-03-07T13:07:08;6.60;95.60
38458;DHT22;24239;48.058;10.486;2023-03-07T13:09:39;6.70;95.30
38458;DHT22;24239;48.058;10.486;2023-03-07T13:30:29;6.60;93.90
38458;DHT22;24239;48.058;10.486;2023-03-07T13:33:01;6.70;94.20
38458;DHT22;24239;48.058;10.486;2023-03-07T13:41:03;6.50;94.80
38458;DHT22;24239;48.058;10.486;2023-03-07T13:43:34;6.50;94.60
38458;DHT22;24239;48.058;10.486;2023-03-07T13:48:57;6.70;94.10
38458;DHT22;24239;48.058;10.486;2023-03-07T13:51:34;6.70;94.30
38458;DHT22;24239;48.058;10.486;2023-03-07T13:54:05;6.70;93.40
38458;DHT22;24239;48.058;10.486;2023-03-07T13:56:38;6.80;93.10
38458;DHT22;24239;48.058;10.486;2023-03-07T14:04:20;7.10;93.90
38458;DHT22;24239;48.058;10.486;2023-03-07T14:06:49;7.10;93.20
38458;DHT22;24239;48.058;10.486;2023-03-07T14:09:18;7.20;93.10
38458;DHT22;24239;48.058;10.486;2023-03-07T14:22:33;7.50;92.30
38458;DHT22;24239;48.058;10.486;2023-03-07T14:27:49;7.70;92.40
38458;DHT22;24239;48.058;10.486;2023-03-07T14:30:19;7.60;92.30
38458;DHT22;24239;48.058;10.486;2023-03-07T14:32:48;7.50;92.20
38458;DHT22;24239;48.058;10.486;2023-03-07T14:38:18;7.40;92.30
38458;DHT22;24239;48.058;10.486;2023-03-07T14:43:40;7.50;92.40
38458;DHT22;24239;48.058;10.486;2023-03-07T14:46:19;7.60;92.30
38458;DHT22;24239;48.058;10.486;2023-03-07T14:51:40;7.20;92.20
38458;DHT22;24239;48.058;10.486;2023-03-07T14:54:15;7.20;93.10
38458;DHT22;24239;48.058;10.486;2023-03-07T14:56:43;7.10;92.60
38458;DHT22;24239;48.058;10.486;2023-03-07T14:59:12;7.10;93.10
38458;DHT22;24239;48.058;10.486;2023-03-07T15:01:47;7.10;92.30
38458;DHT22;24239;48.058;10.486;2023-03-07T15:04:21;6.90;92.00
38458;DHT22;24239;48.058;10.486;2023-03-07T15:07:00;6.90;93.10
38458;DHT22;24239;48.058;10.486;2023-03-07T15:09:32;6.80;92.30
38458;DHT22;24239;48.058;10.486;2023-03-07T15:12:04;6.80;92.60
38458;DHT22;24239;48.058;10.486;2023-03-07T15:14:45;6.90;92.70
38458;DHT22;24239;48.058;10.486;2023-03-07T15:17:16;7.00;92.80
38458;DHT22;24239;48.058;10.486;2023-03-07T15:24:54;7.00;93.00
38458;DHT22;24239;48.058;10.486;2023-03-07T15:27:27;7.00;92.80
38458;DHT22;24239;48.058;10.486;2023-03-07T15:29:58;6.80;92.90
38458;DHT22;24239;48.058;10.486;2023-03-07T15:32:38;6.70;93.00
38458;DHT22;24239;48.058;10.486;2023-03-07T15:42:56;6.50;92.90
38458;DHT22;24239;48.058;10.486;2023-03-07T15:45:31;6.40;92.80
38458;DHT22;24239;48.058;10.486;2023-03-07T15:49:00;6.60;93.90
38458;DHT22;24239;48.058;10.486;2023-03-07T15:50:57;6.30;93.10
38458;DHT22;24239;48.058;10.486;2023-03-07T15:53:28;6.30;93.30
38458;DHT22;24239;48.058;10.486;2023-03-07T15:55:58;6.30;93.70
38458;DHT22;24239;48.058;10.486;2023-03-07T15:58:27;6.20;93.60
38458;DHT22;24239;48.058;10.486;2023-03-07T16:01:06;6.10;93.90
38458;DHT22;24239;48.058;10.486;2023-03-07T16:03:52;6.00;93.90
38458;DHT22;24239;48.058;10.486;2023-03-07T16:09:13;5.90;94.00
38458;DHT22;24239;48.058;10.486;2023-03-07T16:11:40;5.90;94.40
38458;DHT22;24239;48.058;10.486;2023-03-07T16:14:26;5.80;94.50
38458;DHT22;24239;48.058;10.486;2023-03-07T16:16:58;5.80;94.20
38458;DHT22;24239;48.058;10.486;2023-03-07T16:19:27;5.70;94.30
38458;DHT22;24239;48.058;10.486;2023-03-07T16:21:56;5.70;94.30
38458;DHT22;24239;48.058;10.486;2023-03-07T16:24:22;5.60;94.50
38458;DHT22;24239;48.058;10.486;2023-03-07T16:26:51;5.60;94.60
38458;DHT22;24239;48.058;10.486;2023-03-07T16:29:19;5.40;94.60
38458;DHT22;24239;48.058;10.486;2023-03-07T16:31:51;5.50;95.00
38458;DHT22;24239;48.058;10.486;2023-03-07T16:34:21;5.40;95.00
38458;DHT22;24239;48.058;10.486;2023-03-07T16:36:51;5.30;95.40
38458;DHT22;24239;48.058;10.486;2023-03-07T16:39:23;5.40;95.40
38458;DHT22;24239;48.058;10.486;2023-03-07T16:41:51;5.10;95.50
38458;DHT22;24239;48.058;10.486;2023-03-07T16:44:20;5.10;95.80
38458;DHT22;24239;48.058;10.486;2023-03-07T16:47:05;5.00;96.00
38458;DHT22;24239;48.058;10.486;2023-03-07T16:49:34;4.90;96.10
38458;DHT22;24239;48.058;10.486;2023-03-07T16:52:01;4.80;95.90
38458;DHT22;24239;48.058;10.486;2023-03-07T16:54:27;4.80;96.10
38458;DHT22;24239;48.058;10.486;2023-03-07T16:56:56;4.70;96.60
38458;DHT22;24239;48.058;10.486;2023-03-07T16:59:25;4.50;97.10
38458;DHT22;24239;48.058;10.486;2023-03-07T17:01:54;4.40;97.40
38458;DHT22;24239;48.058;10.486;2023-03-07T17:04:27;4.30;97.50
38458;DHT22;24239;48.058;10.486;2023-03-07T17:06:53;4.30;97.70
38458;DHT22;24239;48.058;10.486;2023-03-07T17:09:20;4.00;97.80
38458;DHT22;24239;48.058;10.486;2023-03-07T17:11:48;4.00;98.00
38458;DHT22;24239;48.058;10.486;2023-03-07T17:14:15;3.70;98.50
38458;DHT22;24239;48.058;10.486;2023-03-07T17:16:44;3.70;98.60
38458;DHT22;24239;48.058;10.486;2023-03-07T17:21:47;3.40;98.80
38458;DHT22;24239;48.058;10.486;2023-03-07T17:24:13;3.40;98.80
38458;DHT22;24239;48.058;10.486;2023-03-07T17:26:40;3.40;98.80
38458;DHT22;24239;48.058;10.486;2023-03-07T17:29:10;3.20;98.90
38458;DHT22;24239;48.058;10.486;2023-03-07T17:31:38;3.20;98.80
38458;DHT22;24239;48.058;10.486;2023-03-07T17:34:04;3.30;98.80
38458;DHT22;24239;48.058;10.486;2023-03-07T17:36:34;3.10;98.90
38458;DHT22;24239;48.058;10.486;2023-03-07T17:39:01;3.00;98.90
38458;DHT22;24239;48.058;10.486;2023-03-07T17:41:27;3.10;99.00
38458;DHT22;24239;48.058;10.486;2023-03-07T17:43:54;3.00;98.90
38458;DHT22;24239;48.058;10.486;2023-03-07T17:46:20;3.00;99.00
38458;DHT22;24239;48.058;10.486;2023-03-07T17:48:49;2.80;99.10
38458;DHT22;24239;48.058;10.486;2023-03-07T17:51:18;2.80;99.50
38458;DHT22;24239;48.058;10.486;2023-03-07T17:53:45;2.80;99.40
38458;DHT22;24239;48.058;10.486;2023-03-07T17:56:11;2.80;99.90
38458;DHT22;24239;48.058;10.486;2023-03-07T17:58:38;2.60;99.90
38458;DHT22;24239;48.058;10.486;2023-03-07T18:01:05;2.40;99.90
38458;DHT22;24239;48.058;10.486;2023-03-07T18:03:36;2.40;99.90
38458;DHT22;24239;48.058;10.486;2023-03-07T18:06:03;2.20;99.90
38458;DHT22;24239;48.058;10.486;2023-03-07T18:08:30;2.10;99.90
38458;DHT22;24239;48.058;10.486;2023-03-07T18:11:01;1.90;99.90
38458;DHT22;24239;48.058;10.486;2023-03-07T18:13:28;1.90;99.90
38458;DHT22;24239;48.058;10.486;2023-03-07T18:15:56;1.80;99.90
38458;DHT22;24239;48.058;10.486;2023-03-07T18:18:23;1.60;99.90
38458;DHT22;24239;48.058;10.486;2023-03-07T18:20:57;1.60;99.90
38458;DHT22;24239;48.058;10.486;2023-03-07T18:23:26;1.40;99.90
38458;DHT22;24239;48.058;10.486;2023-03-07T18:25:58;1.40;99.90
38458;DHT22;24239;48.058;10.486;2023-03-07T18:28:26;1.30;99.90
38458;DHT22;24239;48.058;10.486;2023-03-07T18:31:03;1.30;99.90
38458;DHT22;24239;48.058;10.486;2023-03-07T18:33:31;1.20;99.90
38458;DHT22;24239;48.058;10.486;2023-03-07T18:36:00;1.10;99.90
38458;DHT22;24239;48.058;10.486;2023-03-07T18:38:28;1.10;99.90
38458;DHT22;24239;48.058;10.486;2023-03-07T18:41:08;1.00;99.90
38458;DHT22;24239;48.058;10.486;2023-03-07T18:43:37;1.00;99.90
38458;DHT22;24239;48.058;10.486;2023-03-07T18:46:14;1.00;99.90
38458;DHT22;24239;48.058;10.486;2023-03-07T18:48:43;1.10;99.90
38458;DHT22;24239;48.058;10.486;2023-03-07T18:51:15;1.10;99.90